createdAt,value
2023-04-21T00:00:18.245Z,17.16
2023-04-21T00:03:22.801Z,17.20
2023-04-21T00:06:26.964Z,17.10
2023-04-21T00:09:29.453Z,17.10
2023-04-21T00:12:32.119Z,17.08
2023-04-21T00:15:35.611Z,17.06
2023-04-21T00:18:41.215Z,17.05
2023-04-21T00:21:43.411Z,16.98
2023-04-21T00:24:46.160Z,16.98
2023-04-21T00:27:48.457Z,16.85
2023-04-21T00:30:50.814Z,16.92
2023-04-21T00:33:54.401Z,16.80
2023-04-21T00:36:57.728Z,16.82
2023-04-21T00:39:59.931Z,16.80
2023-04-21T00:43:02.024Z,16.74
2023-04-21T00:46:05.748Z,16.73
2023-04-21T00:49:08.340Z,16.83
2023-04-21T00:52:15.154Z,16.86
2023-04-21T00:55:17.913Z,16.88
2023-04-21T00:58:20.685Z,16.82
2023-04-21T01:01:24.550Z,16.72
2023-04-21T01:04:27.572Z,16.70
2023-04-21T01:07:31.162Z,16.66
2023-04-21T01:10:34.263Z,16.68
2023-04-21T01:13:36.858Z,16.73
2023-04-21T01:16:40.108Z,16.60
2023-04-21T01:19:43.047Z,16.62
2023-04-21T01:22:45.959Z,16.67
2023-04-21T01:25:49.099Z,16.65
2023-04-21T01:28:51.603Z,16.67
2023-04-21T01:31:56.163Z,16.75
2023-04-21T01:35:01.360Z,16.60
2023-04-21T01:38:05.455Z,16.53
2023-04-21T01:41:10.970Z,16.59
2023-04-21T01:44:15.799Z,16.66
2023-04-21T01:47:18.714Z,16.59
2023-04-21T01:50:22.688Z,16.63
2023-04-21T01:53:24.905Z,16.53
2023-04-21T01:56:27.101Z,16.51
2023-04-21T01:59:30.456Z,16.48
2023-04-21T02:02:32.913Z,16.64
2023-04-21T02:05:35.182Z,16.67
2023-04-21T02:08:37.384Z,16.59
2023-04-21T02:11:39.525Z,16.54
2023-04-21T02:14:41.675Z,16.62
2023-04-21T02:17:45.329Z,16.57
2023-04-21T02:20:47.600Z,16.47
2023-04-21T02:23:50.363Z,16.40
2023-04-21T02:26:53.582Z,16.53
2023-04-21T02:29:55.902Z,16.44
2023-04-21T02:32:58.398Z,16.46
2023-04-21T02:36:01.123Z,16.49
2023-04-21T02:39:04.544Z,16.38
2023-04-21T02:42:07.965Z,16.45
2023-04-21T02:45:11.451Z,16.33
2023-04-21T02:48:13.956Z,16.41
2023-04-21T02:51:16.110Z,16.39
2023-04-21T02:54:18.320Z,16.40
2023-04-21T02:57:20.928Z,16.48
2023-04-21T03:00:23.666Z,16.59
2023-04-21T03:03:26.086Z,16.49
2023-04-21T03:06:28.464Z,16.53
2023-04-21T03:09:30.785Z,16.52
2023-04-21T03:12:35.345Z,16.34
2023-04-21T03:15:38.345Z,16.43
2023-04-21T03:18:40.551Z,16.40
2023-04-21T03:21:42.824Z,16.48
2023-04-21T03:24:46.703Z,16.63
2023-04-21T03:27:50.261Z,16.47
2023-04-21T03:30:53.218Z,16.53
2023-04-21T03:33:56.028Z,16.64
2023-04-21T03:36:58.370Z,16.49
2023-04-21T03:40:01.415Z,16.63
2023-04-21T03:43:03.882Z,16.48
2023-04-21T03:46:08.402Z,16.47
2023-04-21T03:49:10.554Z,16.38
2023-04-21T03:52:13.406Z,16.47
2023-04-21T03:55:15.583Z,16.36
2023-04-21T03:58:17.913Z,16.44
2023-04-21T04:01:22.039Z,16.39
2023-04-21T04:04:27.116Z,16.39
2023-04-21T04:07:30.289Z,16.38
2023-04-21T04:10:33.091Z,16.31
2023-04-21T04:13:35.470Z,16.32
2023-04-21T04:16:38.747Z,16.27
2023-04-21T04:19:43.837Z,16.43
2023-04-21T04:22:46.538Z,16.43
2023-04-21T04:25:50.419Z,16.39
2023-04-21T04:28:53.647Z,16.36
2023-04-21T04:31:56.536Z,16.45
2023-04-21T04:34:59.044Z,16.42
2023-04-21T04:38:01.222Z,16.43
2023-04-21T04:41:03.879Z,16.39
2023-04-21T04:44:06.374Z,16.38
2023-04-21T04:47:09.024Z,16.39
2023-04-21T04:50:11.500Z,16.42
2023-04-21T04:53:14.678Z,16.44
2023-04-21T04:56:16.873Z,16.55
2023-04-21T04:59:19.243Z,16.53
2023-04-21T05:02:25.307Z,16.52
2023-04-21T05:05:27.727Z,16.57
2023-04-21T05:08:30.428Z,16.54
2023-04-21T05:11:32.557Z,16.65
2023-04-21T05:14:34.611Z,16.57
2023-04-21T05:17:36.886Z,16.68
2023-04-21T05:20:42.260Z,17.13
2023-04-21T05:23:46.115Z,17.17
2023-04-21T05:26:48.201Z,17.38
2023-04-21T05:29:55.636Z,17.43
2023-04-21T05:32:57.835Z,17.48
2023-04-21T05:36:01.468Z,17.37
2023-04-21T05:39:04.373Z,17.38
2023-04-21T05:42:06.985Z,17.36
2023-04-21T05:45:10.135Z,17.40
2023-04-21T05:48:13.590Z,17.46
2023-04-21T05:51:16.100Z,17.55
2023-04-21T05:54:18.600Z,17.66
2023-04-21T05:57:21.046Z,18.04
2023-04-21T06:00:23.236Z,18.48
2023-04-21T06:03:32.890Z,18.77
2023-04-21T06:06:37.477Z,18.96
2023-04-21T06:09:40.651Z,18.53
2023-04-21T06:12:43.453Z,18.33
2023-04-21T06:15:46.523Z,18.29
2023-04-21T06:18:48.659Z,18.23
2023-04-21T06:21:51.085Z,17.94
2023-04-21T06:24:53.336Z,17.73
2023-04-21T06:27:56.936Z,17.61
2023-04-21T06:31:01.290Z,17.59
2023-04-21T06:34:11.096Z,17.45
2023-04-21T06:37:22.060Z,17.46
2023-04-21T06:40:24.582Z,17.43
2023-04-21T06:43:29.532Z,17.51
2023-04-21T06:46:33.495Z,17.52
2023-04-21T06:49:38.700Z,17.51
2023-04-21T06:52:41.609Z,17.53
2023-04-21T06:55:43.882Z,17.57
2023-04-21T06:58:47.354Z,17.59
2023-04-21T07:01:52.497Z,17.61
2023-04-21T07:04:55.781Z,17.55
2023-04-21T07:08:00.048Z,17.48
2023-04-21T07:11:03.978Z,17.55
2023-04-21T07:14:06.748Z,17.62
2023-04-21T07:17:09.074Z,17.64
2023-04-21T07:20:12.844Z,17.57
2023-04-21T07:23:15.097Z,17.61
2023-04-21T07:26:19.702Z,17.63
2023-04-21T07:29:22.434Z,18.65
2023-04-21T07:32:24.763Z,20.36
2023-04-21T07:35:27.389Z,21.07
2023-04-21T07:38:30.537Z,21.05
2023-04-21T07:41:35.465Z,20.42
2023-04-21T07:44:38.691Z,20.31
2023-04-21T07:47:40.902Z,20.29
2023-04-21T07:50:43.143Z,20.16
2023-04-21T07:53:45.264Z,20.17
2023-04-21T07:56:47.497Z,20.17
2023-04-21T07:59:49.835Z,20.01
2023-04-21T08:02:52.100Z,19.79
2023-04-21T08:05:54.921Z,19.74
2023-04-21T08:08:57.634Z,19.53
2023-04-21T08:11:59.856Z,19.49
2023-04-21T08:15:06.060Z,19.47
2023-04-21T08:18:09.539Z,19.39
2023-04-21T08:21:12.868Z,19.41
2023-04-21T08:24:15.413Z,19.47
2023-04-21T08:27:17.892Z,19.57
2023-04-21T08:30:22.228Z,19.44
2023-04-21T08:33:24.985Z,19.35
2023-04-21T08:36:29.922Z,19.28
2023-04-21T08:39:32.334Z,19.26
2023-04-21T08:42:37.074Z,19.19
2023-04-21T08:45:40.741Z,19.10
2023-04-21T08:48:43.850Z,19.00
2023-04-21T08:51:49.810Z,19.13
2023-04-21T08:54:53.789Z,19.14
2023-04-21T08:57:56.568Z,19.07
2023-04-21T09:00:58.819Z,18.96
2023-04-21T09:04:19.191Z,18.86
2023-04-21T09:07:41.978Z,18.80
2023-04-21T09:10:49.565Z,18.81
2023-04-21T09:13:51.976Z,18.92
2023-04-21T09:17:03.456Z,18.92
2023-04-21T09:20:21.040Z,19.08
2023-04-21T09:23:23.073Z,19.81
2023-04-21T09:26:26.426Z,20.04
2023-04-21T09:29:28.950Z,20.49
2023-04-21T09:32:42.678Z,20.95
2023-04-21T09:35:44.987Z,21.24
2023-04-21T09:42:12.038Z,21.75
2023-04-21T09:48:31.408Z,21.62
2023-04-21T09:54:47.140Z,21.33
2023-04-21T09:57:55.945Z,20.92
2023-04-21T10:00:58.146Z,20.66
2023-04-21T10:04:06.448Z,20.58
2023-04-21T10:07:12.218Z,20.46
2023-04-21T10:10:24.779Z,20.36
2023-04-21T10:13:27.535Z,20.33
2023-04-21T10:16:31.958Z,20.35
2023-04-21T10:19:40.028Z,20.22
2023-04-21T10:22:43.193Z,20.17
2023-04-21T10:25:49.336Z,20.11
2023-04-21T10:29:03.322Z,20.26
2023-04-21T10:32:09.270Z,20.28
2023-04-21T10:35:53.690Z,20.03
2023-04-21T10:38:57.577Z,19.80
2023-04-21T10:45:51.852Z,19.37
2023-04-21T10:48:54.796Z,19.31
2023-04-21T10:52:22.611Z,19.31
2023-04-21T10:55:29.942Z,19.27
2023-04-21T10:58:36.844Z,19.33
2023-04-21T11:01:41.806Z,19.12
2023-04-21T11:04:49.104Z,19.11
2023-04-21T11:07:52.973Z,19.11
2023-04-21T11:10:57.631Z,19.10
2023-04-21T11:14:05.022Z,19.11
2023-04-21T11:17:28.859Z,19.09
2023-04-21T11:20:35.166Z,19.12
2023-04-21T11:23:42.510Z,19.16
2023-04-21T11:26:50.847Z,19.12
2023-04-21T11:29:56.237Z,19.22
2023-04-21T11:32:59.038Z,19.10
2023-04-21T11:36:05.790Z,19.08
2023-04-21T11:39:21.758Z,19.03
2023-04-21T11:42:24.400Z,19.23
2023-04-21T11:45:27.775Z,19.24
2023-04-21T11:48:30.264Z,19.08
2023-04-21T11:51:42.008Z,19.00
2023-04-21T11:54:44.316Z,18.93
2023-04-21T11:57:47.357Z,18.69
2023-04-21T12:00:51.210Z,18.64
2023-04-21T12:03:55.246Z,18.67
2023-04-21T12:07:22.620Z,18.74
2023-04-21T12:10:26.986Z,18.64
2023-04-21T12:13:31.531Z,18.63
2023-04-21T12:16:33.728Z,18.60
2023-04-21T12:19:41.293Z,18.72
2023-04-21T12:22:43.717Z,18.92
2023-04-21T12:25:47.157Z,19.22
2023-04-21T12:28:49.894Z,19.63
2023-04-21T12:31:52.044Z,20.13
2023-04-21T12:34:54.166Z,20.35
2023-04-21T12:37:56.263Z,20.60
2023-04-21T12:40:58.476Z,20.66
2023-04-21T12:44:01.249Z,20.63
2023-04-21T12:47:03.483Z,20.78
2023-04-21T12:50:06.184Z,20.75
2023-04-21T12:53:08.546Z,20.85
2023-04-21T12:56:12.074Z,20.89
2023-04-21T12:59:14.218Z,20.92
2023-04-21T13:02:16.891Z,20.89
2023-04-21T13:05:19.708Z,20.79
2023-04-21T13:08:21.914Z,20.79
2023-04-21T13:11:24.006Z,20.83
2023-04-21T13:14:26.123Z,20.71
2023-04-21T13:17:28.620Z,20.53
2023-04-21T13:20:31.361Z,20.37
2023-04-21T13:23:33.469Z,20.37
2023-04-21T13:26:35.567Z,20.27
2023-04-21T13:29:37.722Z,20.13
2023-04-21T13:32:41.136Z,20.06
2023-04-21T13:35:43.329Z,20.10
2023-04-21T13:38:45.666Z,20.36
2023-04-21T13:41:48.555Z,20.38
2023-04-21T13:44:50.676Z,20.58
2023-04-21T13:47:53.073Z,20.30
2023-04-21T13:50:55.827Z,20.13
2023-04-21T13:54:00.153Z,19.88
2023-04-21T13:57:02.346Z,19.84
2023-04-21T14:00:06.749Z,20.07
2023-04-21T14:03:09.989Z,20.14
2023-04-21T14:06:12.235Z,20.04
2023-04-21T14:09:14.320Z,20.03
2023-04-21T14:12:16.510Z,19.94
2023-04-21T14:15:18.794Z,19.82
2023-04-21T14:18:21.229Z,19.66
2023-04-21T14:21:23.401Z,19.61
2023-04-21T14:24:28.765Z,19.25
2023-04-21T14:27:31.304Z,18.95
2023-04-21T14:30:35.297Z,18.43
2023-04-21T14:33:41.453Z,18.30
2023-04-21T14:36:49.807Z,18.54
2023-04-21T14:39:56.081Z,18.61
2023-04-21T14:42:59.595Z,18.60
2023-04-21T14:46:01.961Z,18.93
2023-04-21T14:49:04.773Z,19.14
2023-04-21T14:52:07.512Z,19.37
2023-04-21T14:55:10.114Z,19.46
2023-04-21T14:58:12.573Z,19.55
2023-04-21T15:01:14.796Z,19.59
2023-04-21T15:04:17.256Z,19.61
2023-04-21T15:07:24.245Z,19.64
2023-04-21T15:10:27.581Z,19.64
2023-04-21T15:13:29.857Z,19.62
2023-04-21T15:16:32.044Z,19.59
2023-04-21T15:19:34.341Z,19.58
2023-04-21T15:22:37.269Z,19.50
2023-04-21T15:25:39.974Z,19.38
2023-04-21T15:28:42.530Z,19.23
2023-04-21T15:31:45.665Z,19.03
2023-04-21T15:34:47.868Z,18.72
2023-04-21T15:37:50.498Z,18.55
2023-04-21T15:41:01.319Z,18.48
2023-04-21T15:44:03.978Z,18.38
2023-04-21T15:47:08.741Z,18.35
2023-04-21T15:50:11.864Z,18.30
2023-04-21T15:53:15.041Z,18.33
2023-04-21T15:57:09.277Z,18.29
2023-04-21T16:00:15.658Z,18.28
2023-04-21T16:03:20.496Z,18.60
2023-04-21T16:06:30.430Z,18.43
2023-04-21T16:09:34.594Z,18.25
2023-04-21T16:16:29.654Z,18.83
2023-04-21T16:19:33.537Z,19.06
2023-04-21T16:22:36.084Z,19.19
2023-04-21T16:25:38.516Z,19.32
2023-04-21T16:28:41.975Z,19.37
2023-04-21T16:31:45.574Z,19.45
2023-04-21T16:34:48.183Z,19.53
2023-04-21T16:37:53.525Z,19.53
2023-04-21T16:40:55.683Z,19.54
2023-04-21T16:43:59.456Z,19.55
2023-04-21T16:47:04.706Z,19.43
2023-04-21T16:50:11.383Z,19.29
2023-04-21T16:53:15.672Z,19.20
2023-04-21T16:56:22.256Z,19.11
2023-04-21T16:59:26.569Z,19.06
2023-04-21T17:02:28.720Z,18.99
2023-04-21T17:05:31.035Z,19.01
2023-04-21T17:08:36.344Z,18.91
2023-04-21T17:11:43.932Z,18.87
2023-04-21T17:14:46.933Z,18.80
2023-04-21T17:17:52.257Z,18.73
2023-04-21T17:21:13.659Z,18.73
2023-04-21T17:24:17.905Z,18.64
2023-04-21T17:27:23.917Z,18.56
2023-04-21T17:30:26.180Z,18.49
2023-04-21T17:33:35.647Z,18.48
2023-04-21T17:36:39.577Z,18.43
2023-04-21T17:39:41.947Z,18.37
2023-04-21T17:42:43.950Z,18.34
2023-04-21T17:45:46.217Z,18.28
2023-04-21T17:48:49.761Z,18.26
2023-04-21T17:51:55.107Z,18.12
2023-04-21T17:54:58.515Z,18.17
2023-04-21T17:58:00.742Z,18.13
2023-04-21T18:01:28.599Z,18.13
2023-04-21T18:04:34.935Z,18.07
2023-04-21T18:07:38.193Z,18.07
2023-04-21T18:10:44.338Z,18.10
2023-04-21T18:13:46.571Z,18.05
2023-04-21T18:16:49.556Z,18.19
2023-04-21T18:19:54.972Z,18.38
2023-04-21T18:23:01.758Z,18.71
2023-04-21T18:26:04.007Z,18.74
2023-04-21T18:29:06.571Z,18.91
2023-04-21T18:32:08.814Z,18.92
2023-04-21T18:35:11.400Z,18.70
2023-04-21T18:38:13.816Z,18.75
2023-04-21T18:41:16.582Z,18.87
2023-04-21T18:44:18.736Z,18.85
2023-04-21T18:47:23.472Z,18.73
2023-04-21T18:50:29.760Z,18.58
2023-04-21T18:53:34.111Z,18.37
2023-04-21T18:56:36.832Z,18.36
2023-04-21T18:59:39.753Z,18.33
2023-04-21T19:02:43.403Z,18.37
2023-04-21T19:05:47.253Z,18.26
2023-04-21T19:08:51.361Z,18.13
2023-04-21T19:11:53.650Z,18.04
2023-04-21T19:14:55.845Z,18.00
2023-04-21T19:17:59.872Z,18.02
2023-04-21T19:21:04.864Z,17.88
2023-04-21T19:24:06.977Z,17.85
2023-04-21T19:27:09.324Z,17.92
2023-04-21T19:30:12.815Z,17.79
2023-04-21T19:33:17.648Z,17.80
2023-04-21T19:36:20.892Z,18.43
2023-04-21T19:39:23.264Z,18.61
2023-04-21T19:42:25.577Z,18.78
2023-04-21T19:45:28.603Z,19.23
2023-04-21T19:48:32.296Z,19.59
2023-04-21T19:51:36.439Z,19.95
2023-04-21T19:54:39.875Z,20.18
2023-04-21T19:57:42.239Z,20.42
2023-04-21T20:00:46.535Z,20.62
2023-04-21T20:03:48.883Z,19.87
2023-04-21T20:06:51.500Z,19.34
2023-04-21T20:09:53.682Z,18.99
2023-04-21T20:12:57.875Z,18.75
2023-04-21T20:16:03.847Z,18.57
2023-04-21T20:19:06.143Z,18.45
2023-04-21T20:22:14.227Z,18.28
2023-04-21T20:25:17.107Z,18.16
2023-04-21T20:28:19.746Z,18.10
2023-04-21T20:31:24.276Z,17.98
2023-04-21T20:34:27.751Z,17.85
2023-04-21T20:37:30.719Z,17.78
2023-04-21T20:40:35.532Z,17.64
2023-04-21T20:43:39.160Z,17.58
2023-04-21T20:46:41.525Z,17.49
2023-04-21T20:49:43.854Z,17.45
2023-04-21T20:52:46.754Z,17.41
2023-04-21T20:55:49.977Z,17.39
2023-04-21T20:58:52.588Z,17.32
2023-04-21T21:01:54.853Z,17.19
2023-04-21T21:04:57.064Z,17.08
2023-04-21T21:07:59.397Z,17.11
2023-04-21T21:11:01.493Z,17.10
2023-04-21T21:14:03.576Z,17.16
2023-04-21T21:17:05.698Z,17.19
2023-04-21T21:20:08.696Z,17.24
2023-04-21T21:23:11.856Z,17.20
2023-04-21T21:26:14.066Z,17.19
2023-04-21T21:29:16.198Z,17.18
2023-04-21T21:32:18.831Z,17.16
2023-04-21T21:35:21.239Z,17.23
2023-04-21T21:38:23.348Z,17.17
2023-04-21T21:41:25.966Z,17.22
2023-04-21T21:44:28.282Z,17.20
2023-04-21T21:47:30.494Z,17.17
2023-04-21T21:50:32.641Z,16.92
2023-04-21T21:53:35.339Z,16.77
2023-04-21T21:56:37.798Z,16.77
2023-04-21T21:59:40.242Z,16.79
2023-04-21T22:02:42.975Z,16.79
2023-04-21T22:05:45.182Z,16.77
2023-04-21T22:08:47.721Z,16.89
2023-04-21T22:11:49.892Z,16.93
2023-04-21T22:14:54.166Z,16.88
2023-04-21T22:17:56.856Z,16.93
2023-04-21T22:20:59.944Z,16.93
2023-04-21T22:24:02.553Z,16.95
2023-04-21T22:27:04.756Z,16.89
2023-04-21T22:30:07.713Z,16.81
2023-04-21T22:33:09.926Z,16.83
2023-04-21T22:36:12.108Z,16.83
2023-04-21T22:39:14.268Z,16.75
2023-04-21T22:42:16.977Z,16.71
2023-04-21T22:45:19.563Z,16.65
2023-04-21T22:48:22.256Z,16.58
2023-04-21T22:51:24.914Z,16.52
2023-04-21T22:54:27.906Z,16.52
2023-04-21T22:57:30.439Z,16.50
2023-04-21T23:00:32.689Z,16.45
2023-04-21T23:03:34.963Z,16.45
2023-04-21T23:06:38.396Z,16.45
2023-04-21T23:09:40.754Z,16.44
2023-04-21T23:12:43.131Z,16.47
2023-04-21T23:15:45.432Z,16.45
2023-04-21T23:18:48.428Z,16.41
2023-04-21T23:21:51.734Z,16.40
2023-04-21T23:24:54.029Z,16.46
2023-04-21T23:27:57.232Z,16.44
2023-04-21T23:31:00.533Z,16.41
2023-04-21T23:34:02.683Z,16.39
2023-04-21T23:37:05.270Z,16.43
2023-04-21T23:40:11.448Z,16.44
2023-04-21T23:43:13.588Z,16.40
2023-04-21T23:46:15.728Z,16.38
2023-04-21T23:49:18.159Z,16.35
2023-04-21T23:52:20.544Z,16.31
2023-04-21T23:55:22.807Z,16.25
2023-04-21T23:58:24.959Z,16.30
